To NAV CANADA Home Page Login to a new session Search on AWWS site Disclaimer Vers la page française équivalente Tips FAQ What's new on the site To the Forecasts and Observations / NOTAM section To "File a Flight Plan" website Publications and other links Update of the User's profile FIC Telephone Numbers My Weather Data Folder Route Weather Data Regional Weather Data Local Weather Data To the Forecasts and Observations / NOTAM section
Request Generated 03/19/2019 at 23:04:29 UTC . Weather information available at that time is displayed.

METAR/TAF

FORT GOOD HOPE/NT    

METAR CYGH 192300Z VRB02KT 25SM BKN110 08/M01 A2968 RMK AC6 SNW CVR/MEDIUM PACK LAST STFD OBS/NEXT OBS 201300UTC SLP058=
METAR CYGH 192200Z 26005KT 25SM BKN110 08/M01 A2968 RMK AC7 SLP058=
METAR CYGH 192100Z 25003KT 25SM BKN110 08/M01 A2967 RMK AC6 SLP055=

*** REMARK        : Forecast period has ended; this was the last TAF issued
*** REMARQUE : La période de prévision est échue; ceci était le dernier TAF qui a été émis
TAF CYGH 191738Z 1918/1923 VRB03KT P6SM FEW100 BKN230
BECMG 1918/1920 20008KT
RMK NXT FCST WILL BE ISSUED AT 201415Z=
Your time UTC time
Weather data provided by Environment Canada and NAV CANADA